createdAt,value
2023-01-25T00:00:13.456Z,27.40
2023-01-25T00:01:13.457Z,25.40
2023-01-25T00:02:13.506Z,29.00
2023-01-25T00:03:13.505Z,31.70
2023-01-25T00:04:13.426Z,29.40
2023-01-25T00:05:13.405Z,30.00
2023-01-25T00:06:13.409Z,28.90
2023-01-25T00:07:13.408Z,30.60
2023-01-25T00:08:14.276Z,29.70
2023-01-25T00:09:13.383Z,31.90
2023-01-25T00:10:13.352Z,31.10
2023-01-25T00:11:13.357Z,28.40
2023-01-25T00:12:13.377Z,28.90
2023-01-25T00:13:13.336Z,30.30
2023-01-25T00:14:13.329Z,27.80
2023-01-25T00:15:13.375Z,26.60
2023-01-25T00:16:13.343Z,28.20
2023-01-25T00:17:13.331Z,27.30
2023-01-25T00:18:13.303Z,24.10
2023-01-25T00:19:13.320Z,24.00
2023-01-25T00:20:13.316Z,26.60
2023-01-25T00:21:14.270Z,29.20
2023-01-25T00:22:13.272Z,25.30
2023-01-25T00:23:13.270Z,28.70
2023-01-25T00:24:13.356Z,27.80
2023-01-25T00:25:13.259Z,28.80
2023-01-25T00:26:14.256Z,34.80
2023-01-25T00:27:13.302Z,28.70
2023-01-25T00:28:13.211Z,34.40
2023-01-25T00:29:13.225Z,31.50
2023-01-25T00:30:13.233Z,30.90
2023-01-25T00:31:13.290Z,30.10
2023-01-25T00:32:13.330Z,31.20
2023-01-25T00:33:13.193Z,34.50
2023-01-25T00:34:13.188Z,29.80
2023-01-25T00:35:13.219Z,30.90
2023-01-25T00:36:13.195Z,31.40
2023-01-25T00:37:13.227Z,33.30
2023-01-25T00:38:13.144Z,33.90
2023-01-25T00:39:13.143Z,33.80
2023-01-25T00:40:13.131Z,36.30
2023-01-25T00:41:13.114Z,35.70
2023-01-25T00:42:13.148Z,36.70
2023-01-25T00:43:13.154Z,36.20
2023-01-25T00:44:13.108Z,38.90
2023-01-25T00:45:13.094Z,38.50
2023-01-25T00:46:13.149Z,34.50
2023-01-25T00:47:13.068Z,34.40
2023-01-25T00:48:13.098Z,31.90
2023-01-25T00:49:13.062Z,34.40
2023-01-25T00:50:13.055Z,34.90
2023-01-25T00:51:13.049Z,35.10
2023-01-25T00:52:13.039Z,36.50
2023-01-25T00:53:13.045Z,35.60
2023-01-25T00:54:13.189Z,39.40
2023-01-25T00:55:12.995Z,36.30
2023-01-25T00:56:13.021Z,36.00
2023-01-25T00:57:13.035Z,37.30
2023-01-25T00:58:13.851Z,39.80
2023-01-25T00:59:12.988Z,35.90
2023-01-25T01:00:12.975Z,31.90
2023-01-25T01:01:13.074Z,33.30
2023-01-25T01:02:13.015Z,34.50
2023-01-25T01:03:12.995Z,33.40
2023-01-25T01:04:13.012Z,30.70
2023-01-25T01:05:13.218Z,33.10
2023-01-25T01:06:12.927Z,30.90
2023-01-25T01:07:13.046Z,30.20
2023-01-25T01:08:12.944Z,31.70
2023-01-25T01:09:12.924Z,33.80
2023-01-25T01:10:13.930Z,35.80
2023-01-25T01:11:12.945Z,35.80
2023-01-25T01:12:12.959Z,38.10
2023-01-25T01:13:12.940Z,39.70
2023-01-25T01:14:12.914Z,37.60
2023-01-25T01:15:12.869Z,35.30
2023-01-25T01:16:13.087Z,33.70
2023-01-25T01:17:12.923Z,34.00
2023-01-25T01:18:13.401Z,32.40
2023-01-25T01:19:12.985Z,34.50
2023-01-25T01:20:12.929Z,32.70
2023-01-25T01:21:12.823Z,32.70
2023-01-25T01:22:12.801Z,32.40
2023-01-25T01:23:13.157Z,27.20
2023-01-25T01:24:12.854Z,28.00
2023-01-25T01:25:12.811Z,25.70
2023-01-25T01:26:12.801Z,28.00
2023-01-25T01:27:12.792Z,28.20
2023-01-25T01:28:12.844Z,27.90
2023-01-25T01:29:12.740Z,30.10
2023-01-25T01:30:12.788Z,29.50
2023-01-25T01:31:12.849Z,29.00
2023-01-25T01:32:13.551Z,29.30
2023-01-25T01:33:12.709Z,28.70
2023-01-25T01:34:12.712Z,33.40
2023-01-25T01:35:12.721Z,29.40
2023-01-25T01:36:12.720Z,32.10
2023-01-25T01:37:12.680Z,33.80
2023-01-25T01:38:12.969Z,30.60
2023-01-25T01:39:12.693Z,31.60
2023-01-25T01:40:12.661Z,29.50
2023-01-25T01:41:12.659Z,26.50
2023-01-25T01:42:12.671Z,28.60
2023-01-25T01:43:12.664Z,28.50
2023-01-25T01:44:12.632Z,30.90
2023-01-25T01:45:12.621Z,28.80
2023-01-25T01:46:12.682Z,28.30
2023-01-25T01:47:12.640Z,27.60
2023-01-25T01:48:12.862Z,31.30
2023-01-25T01:49:12.596Z,24.60
2023-01-25T01:50:12.584Z,21.40
2023-01-25T01:51:12.601Z,26.70
2023-01-25T01:52:12.588Z,25.00
2023-01-25T01:53:12.627Z,28.80
2023-01-25T01:54:12.540Z,29.90
2023-01-25T01:55:12.572Z,27.40
2023-01-25T01:56:12.582Z,30.30
2023-01-25T01:57:12.554Z,34.20
2023-01-25T01:58:12.969Z,29.80
2023-01-25T01:59:12.530Z,30.70
2023-01-25T02:00:12.530Z,30.30
2023-01-25T02:01:12.591Z,29.80
2023-01-25T02:02:12.557Z,29.80
2023-01-25T02:03:12.527Z,27.10
2023-01-25T02:04:12.475Z,31.10
2023-01-25T02:05:12.477Z,29.70
2023-01-25T02:06:12.495Z,32.80
2023-01-25T02:07:12.498Z,28.40
2023-01-25T02:08:13.393Z,31.10
2023-01-25T02:09:12.477Z,28.20
2023-01-25T02:10:12.496Z,29.60
2023-01-25T02:11:12.442Z,31.20
2023-01-25T02:12:12.438Z,28.80
2023-01-25T02:13:12.408Z,30.10
2023-01-25T02:14:12.403Z,29.80
2023-01-25T02:15:12.429Z,29.90
2023-01-25T02:16:12.415Z,26.20
2023-01-25T02:17:12.377Z,29.70
2023-01-25T02:18:12.380Z,28.90
2023-01-25T02:19:12.354Z,32.70
2023-01-25T02:20:12.432Z,30.50
2023-01-25T02:21:12.359Z,31.60
2023-01-25T02:22:12.333Z,30.30
2023-01-25T02:23:12.345Z,33.30
2023-01-25T02:24:12.411Z,31.20
2023-01-25T02:25:12.357Z,31.90
2023-01-25T02:26:12.334Z,30.00
2023-01-25T02:27:12.287Z,32.60
2023-01-25T02:28:12.282Z,32.40
2023-01-25T02:29:12.289Z,33.80
2023-01-25T02:30:12.296Z,32.70
2023-01-25T02:31:12.946Z,32.70
2023-01-25T02:32:12.288Z,31.40
2023-01-25T02:33:12.245Z,30.30
2023-01-25T02:34:12.250Z,31.70
2023-01-25T02:35:12.271Z,32.40
2023-01-25T02:36:12.244Z,35.60
2023-01-25T02:37:12.242Z,32.10
2023-01-25T02:38:12.882Z,31.20
2023-01-25T02:39:12.247Z,32.30
2023-01-25T02:40:12.226Z,32.60
2023-01-25T02:41:44.113Z,34.10
2023-01-25T02:42:12.237Z,34.50
2023-01-25T02:43:12.169Z,33.90
2023-01-25T02:44:12.196Z,35.80
2023-01-25T02:45:12.172Z,38.00
2023-01-25T02:46:12.217Z,35.20
2023-01-25T02:47:12.151Z,35.10
2023-01-25T02:48:12.148Z,38.80
2023-01-25T02:49:12.160Z,37.50
2023-01-25T02:50:14.320Z,38.10
2023-01-25T02:51:12.147Z,38.70
2023-01-25T02:52:12.166Z,39.50
2023-01-25T02:53:12.110Z,37.80
2023-01-25T02:54:12.130Z,36.30
2023-01-25T02:55:12.079Z,36.80
2023-01-25T02:56:12.070Z,34.90
2023-01-25T02:57:12.091Z,36.40
2023-01-25T02:58:12.130Z,37.10
2023-01-25T02:59:12.090Z,35.10
2023-01-25T03:00:12.086Z,35.80
2023-01-25T03:01:12.077Z,33.40
2023-01-25T03:02:12.069Z,32.80
2023-01-25T03:03:12.035Z,33.00
2023-01-25T03:04:12.037Z,35.10
2023-01-25T03:05:12.055Z,38.00
2023-01-25T03:06:12.063Z,37.80
2023-01-25T03:07:11.996Z,33.50
2023-01-25T03:08:11.985Z,31.90
2023-01-25T03:09:12.023Z,28.10
2023-01-25T03:10:12.088Z,36.00
2023-01-25T03:11:11.965Z,33.00
2023-01-25T03:12:11.960Z,34.00
2023-01-25T03:13:11.981Z,31.20
2023-01-25T03:14:11.963Z,34.90
2023-01-25T03:15:11.984Z,31.40
2023-01-25T03:16:12.036Z,35.10
2023-01-25T03:17:11.922Z,35.20
2023-01-25T03:18:11.917Z,31.90
2023-01-25T03:19:11.940Z,32.50
2023-01-25T03:20:11.990Z,34.00
2023-01-25T03:21:11.959Z,34.10
2023-01-25T03:22:11.897Z,32.40
2023-01-25T03:23:11.871Z,31.20
2023-01-25T03:24:11.957Z,35.40
2023-01-25T03:25:12.022Z,31.70
2023-01-25T03:26:11.896Z,33.50
2023-01-25T03:27:11.844Z,31.60
2023-01-25T03:28:11.845Z,36.20
2023-01-25T03:29:11.977Z,34.60
2023-01-25T03:30:11.834Z,36.50
2023-01-25T03:31:11.894Z,35.30
2023-01-25T03:32:11.807Z,35.50
2023-01-25T03:33:11.827Z,37.80
2023-01-25T03:34:11.794Z,32.90
2023-01-25T03:35:11.840Z,36.60
2023-01-25T03:36:11.906Z,34.30
2023-01-25T03:37:11.794Z,32.00
2023-01-25T03:38:11.759Z,36.80
2023-01-25T03:39:11.748Z,33.50
2023-01-25T03:40:11.762Z,37.70
2023-01-25T03:41:11.772Z,35.70
2023-01-25T03:42:11.738Z,37.40
2023-01-25T03:43:11.719Z,34.20
2023-01-25T03:44:11.739Z,34.20
2023-01-25T03:45:12.115Z,32.00
2023-01-25T03:46:11.699Z,30.20
2023-01-25T03:47:11.839Z,31.70
2023-01-25T04:03:05.601Z,22.80
2023-01-25T04:04:05.588Z,28.70
2023-01-25T04:05:05.587Z,30.40
2023-01-25T04:06:05.563Z,33.20
2023-01-25T04:07:05.555Z,33.10
2023-01-25T04:08:06.719Z,38.30
2023-01-25T04:09:06.671Z,34.30
2023-01-25T04:10:06.702Z,31.80
2023-01-25T04:11:06.671Z,32.10
2023-01-25T04:12:06.652Z,33.70
2023-01-25T04:13:06.661Z,33.70
2023-01-25T04:14:06.681Z,37.10
2023-01-25T04:15:07.057Z,33.60
2023-01-25T04:16:06.667Z,35.20
2023-01-25T04:17:06.722Z,34.60
2023-01-25T04:18:06.606Z,33.00
2023-01-25T04:19:06.604Z,31.80
2023-01-25T04:20:06.601Z,34.00
2023-01-25T04:21:06.589Z,33.40
2023-01-25T04:22:06.609Z,31.90
2023-01-25T04:23:06.599Z,33.20
2023-01-25T04:24:06.622Z,36.00
2023-01-25T04:25:06.965Z,35.00
2023-01-25T04:26:06.563Z,38.40
2023-01-25T04:27:06.555Z,35.00
2023-01-25T04:28:06.588Z,29.80
2023-01-25T04:29:06.551Z,31.20
2023-01-25T04:30:06.523Z,26.40
2023-01-25T04:31:06.520Z,33.30
2023-01-25T04:32:06.637Z,29.40
2023-01-25T04:33:06.506Z,31.10
2023-01-25T04:34:06.498Z,33.50
2023-01-25T04:35:06.772Z,31.30
2023-01-25T04:36:06.513Z,32.40
2023-01-25T04:37:06.502Z,30.10
2023-01-25T04:38:06.443Z,31.00
2023-01-25T04:39:06.479Z,33.60
2023-01-25T04:40:06.431Z,31.40
2023-01-25T04:41:06.573Z,31.90
2023-01-25T04:42:06.455Z,34.10
2023-01-25T04:43:06.420Z,30.90
2023-01-25T04:44:06.413Z,30.50
2023-01-25T04:45:06.427Z,28.90
2023-01-25T04:46:07.277Z,31.30
2023-01-25T04:47:06.425Z,28.90
2023-01-25T04:48:06.388Z,32.50
2023-01-25T04:49:06.430Z,29.10
2023-01-25T04:50:07.311Z,27.20
2023-01-25T04:51:07.357Z,27.50
2023-01-25T04:52:06.402Z,29.80
2023-01-25T04:53:06.358Z,28.70
2023-01-25T04:54:06.334Z,33.40
2023-01-25T04:55:07.755Z,26.20
2023-01-25T04:56:06.310Z,27.80
2023-01-25T04:57:06.311Z,27.80
2023-01-25T04:58:06.457Z,30.70
2023-01-25T04:59:06.283Z,25.60
2023-01-25T05:00:06.296Z,24.10
2023-01-25T05:01:06.374Z,24.30
2023-01-25T05:02:06.279Z,24.40
2023-01-25T05:03:06.283Z,26.20
2023-01-25T05:04:06.258Z,27.20
2023-01-25T05:05:06.262Z,27.50
2023-01-25T05:06:06.222Z,29.10
2023-01-25T05:07:06.233Z,29.70
2023-01-25T05:08:06.360Z,27.00
2023-01-25T05:09:06.216Z,28.30
2023-01-25T05:10:06.189Z,28.00
2023-01-25T05:11:06.213Z,29.10
2023-01-25T05:12:06.190Z,28.80
2023-01-25T05:13:06.252Z,29.10
2023-01-25T05:14:06.197Z,30.80
2023-01-25T05:15:06.168Z,30.80
2023-01-25T05:16:07.715Z,29.80
2023-01-25T05:17:06.153Z,31.00
2023-01-25T05:18:06.156Z,30.00
2023-01-25T05:19:06.136Z,33.70
2023-01-25T05:20:06.808Z,35.30
2023-01-25T05:21:06.160Z,33.60
2023-01-25T05:22:06.131Z,31.20
2023-01-25T05:23:06.104Z,35.80
2023-01-25T05:24:06.155Z,32.80
2023-01-25T05:25:06.178Z,31.60
2023-01-25T05:26:06.124Z,31.60
2023-01-25T05:27:06.154Z,32.20
2023-01-25T05:28:06.073Z,34.00
2023-01-25T05:29:06.066Z,36.90
2023-01-25T05:30:06.096Z,29.70
2023-01-25T05:31:06.104Z,37.80
2023-01-25T05:32:06.129Z,36.30
2023-01-25T05:33:06.048Z,36.10
2023-01-25T05:34:06.023Z,41.00
2023-01-25T05:35:06.111Z,37.80
2023-01-25T05:36:06.017Z,38.20
2023-01-25T05:37:06.031Z,39.50
2023-01-25T05:38:06.000Z,40.60
2023-01-25T05:39:06.012Z,36.00
2023-01-25T05:40:06.042Z,36.00
2023-01-25T05:41:06.044Z,39.30
2023-01-25T05:42:05.981Z,40.50
2023-01-25T05:43:05.941Z,36.70
2023-01-25T05:44:05.960Z,37.70
2023-01-25T05:45:06.042Z,41.70
2023-01-25T05:46:05.982Z,42.10
2023-01-25T05:47:05.938Z,42.00
2023-01-25T05:48:05.933Z,41.50
2023-01-25T05:49:05.941Z,40.70
2023-01-25T05:50:08.597Z,36.00
2023-01-25T05:51:05.890Z,37.60
2023-01-25T05:52:05.885Z,38.50
2023-01-25T05:53:05.905Z,39.40
2023-01-25T05:54:05.894Z,39.80
2023-01-25T05:55:05.854Z,35.80
2023-01-25T05:56:05.971Z,34.40
2023-01-25T05:57:05.860Z,30.00
2023-01-25T05:58:06.043Z,30.50
2023-01-25T05:59:05.872Z,35.30
2023-01-25T06:00:05.852Z,35.90
2023-01-25T06:01:05.935Z,33.40
2023-01-25T06:02:05.813Z,34.20
2023-01-25T06:03:05.854Z,35.80
2023-01-25T06:04:06.798Z,35.60
2023-01-25T06:05:05.854Z,32.70
2023-01-25T06:06:05.806Z,33.60
2023-01-25T06:07:05.765Z,37.70
2023-01-25T06:08:05.781Z,33.40
2023-01-25T06:09:05.754Z,32.90
2023-01-25T06:10:05.774Z,35.10
2023-01-25T06:11:05.748Z,34.40
2023-01-25T06:12:05.735Z,37.30
2023-01-25T06:13:05.794Z,37.80
2023-01-25T06:14:05.737Z,37.80
2023-01-25T06:15:05.717Z,37.80
2023-01-25T06:16:05.766Z,40.10
2023-01-25T06:17:05.704Z,38.80
2023-01-25T06:18:05.676Z,41.40
2023-01-25T06:19:05.670Z,39.90
2023-01-25T06:20:05.663Z,46.80
2023-01-25T06:21:06.663Z,41.90
2023-01-25T06:22:05.730Z,47.00
2023-01-25T06:23:05.630Z,48.80
2023-01-25T06:24:05.729Z,46.20
2023-01-25T06:25:05.651Z,41.30
2023-01-25T06:26:05.615Z,45.70
2023-01-25T06:27:05.639Z,41.30
2023-01-25T06:28:05.614Z,38.40
2023-01-25T06:29:05.607Z,37.40
2023-01-25T06:30:05.578Z,34.90
2023-01-25T06:31:05.628Z,38.00
2023-01-25T06:32:05.598Z,41.20
2023-01-25T06:33:05.607Z,42.50
2023-01-25T06:34:05.568Z,45.00
2023-01-25T06:35:05.552Z,37.30
2023-01-25T06:36:05.532Z,39.00
2023-01-25T06:37:05.554Z,40.50
2023-01-25T06:38:05.544Z,41.90
2023-01-25T06:39:05.521Z,42.60
2023-01-25T06:40:05.551Z,39.40
2023-01-25T06:41:05.526Z,43.30
2023-01-25T06:42:05.495Z,42.40
2023-01-25T06:43:05.501Z,38.40
2023-01-25T06:44:05.501Z,40.90
2023-01-25T06:45:05.512Z,50.50
2023-01-25T06:46:06.980Z,44.70
2023-01-25T06:47:05.488Z,43.50
2023-01-25T06:48:05.450Z,45.90
2023-01-25T06:49:05.525Z,47.30
2023-01-25T06:50:05.428Z,44.20
2023-01-25T06:51:05.424Z,42.40
2023-01-25T06:52:05.430Z,42.00
2023-01-25T06:53:05.427Z,42.90
2023-01-25T06:54:05.434Z,41.50
2023-01-25T06:55:05.414Z,38.40
2023-01-25T06:56:05.406Z,42.60
2023-01-25T06:57:05.385Z,44.70
2023-01-25T06:58:05.422Z,49.00
2023-01-25T06:59:05.404Z,44.60
2023-01-25T07:00:05.364Z,41.10
2023-01-25T07:01:05.376Z,49.30
2023-01-25T07:02:05.406Z,36.20
2023-01-25T07:03:05.410Z,43.50
2023-01-25T07:04:06.366Z,46.00
2023-01-25T07:05:05.356Z,45.10
2023-01-25T07:06:05.392Z,40.40
2023-01-25T07:07:05.315Z,40.00
2023-01-25T07:08:05.327Z,36.70
2023-01-25T07:09:05.308Z,38.90
2023-01-25T07:10:05.321Z,36.80
2023-01-25T07:11:05.308Z,41.00
2023-01-25T07:12:05.266Z,38.90
2023-01-25T07:13:05.286Z,37.40
2023-01-25T07:14:05.263Z,42.40
2023-01-25T07:15:05.266Z,40.00
2023-01-25T07:16:05.278Z,36.10
2023-01-25T07:17:05.234Z,41.50
2023-01-25T07:18:15.678Z,39.00
2023-01-25T07:19:07.241Z,37.60
2023-01-25T07:20:05.237Z,39.80
2023-01-25T07:21:05.207Z,39.90
2023-01-25T07:22:05.187Z,36.30
2023-01-25T07:23:05.183Z,35.00
2023-01-25T07:24:05.252Z,38.00
2023-01-25T07:25:05.170Z,37.30
2023-01-25T07:26:05.231Z,36.40
2023-01-25T07:27:05.220Z,32.40
2023-01-25T07:28:05.144Z,30.50
2023-01-25T07:29:05.149Z,33.60
2023-01-25T07:30:05.213Z,36.80
2023-01-25T07:31:05.299Z,41.10
2023-01-25T07:32:05.129Z,40.70
2023-01-25T07:33:05.124Z,47.50
2023-01-25T07:34:05.130Z,45.00
2023-01-25T07:35:05.133Z,43.30
2023-01-25T07:36:05.147Z,38.80
2023-01-25T07:37:05.089Z,44.80
2023-01-25T07:38:05.085Z,36.40
2023-01-25T07:39:05.073Z,36.30
2023-01-25T07:40:05.085Z,35.10
2023-01-25T07:41:05.078Z,32.80
2023-01-25T07:42:05.088Z,30.70
2023-01-25T07:43:05.053Z,32.10
2023-01-25T07:44:05.059Z,35.60
2023-01-25T07:45:05.010Z,34.70
2023-01-25T07:46:05.056Z,35.00
2023-01-25T07:47:05.793Z,28.90
2023-01-25T07:48:05.019Z,28.50
2023-01-25T07:49:04.994Z,38.00
2023-01-25T07:50:05.047Z,36.00
2023-01-25T07:51:04.966Z,34.20
2023-01-25T07:52:05.708Z,26.30
2023-01-25T07:53:04.985Z,29.00
2023-01-25T07:54:04.970Z,32.50
2023-01-25T07:55:04.953Z,33.20
2023-01-25T07:56:04.961Z,32.80
2023-01-25T07:57:04.956Z,34.30
2023-01-25T07:58:04.925Z,34.50
2023-01-25T07:59:05.040Z,29.70
2023-01-25T08:00:04.919Z,26.40
2023-01-25T08:01:04.898Z,29.90
2023-01-25T08:02:04.930Z,31.70
2023-01-25T08:03:04.922Z,30.60
2023-01-25T08:04:04.901Z,29.00
2023-01-25T08:05:04.891Z,35.90
2023-01-25T08:06:04.859Z,38.10
2023-01-25T08:07:04.903Z,32.10
2023-01-25T08:08:04.871Z,41.00
2023-01-25T08:09:04.848Z,34.00
2023-01-25T08:10:04.942Z,34.20
2023-01-25T08:11:04.825Z,35.50
2023-01-25T08:12:06.791Z,36.70
2023-01-25T08:13:04.838Z,30.30
2023-01-25T08:14:04.848Z,35.10
2023-01-25T08:15:04.827Z,51.20
2023-01-25T08:16:04.890Z,33.80
2023-01-25T08:17:04.779Z,31.10
2023-01-25T08:18:04.781Z,27.10
2023-01-25T08:19:04.811Z,27.70
2023-01-25T08:20:04.799Z,25.50
2023-01-25T08:21:04.748Z,28.50
2023-01-25T08:22:04.769Z,27.80
2023-01-25T08:23:04.747Z,27.90
2023-01-25T08:24:04.820Z,26.00
2023-01-25T08:25:04.748Z,27.40
2023-01-25T08:26:04.777Z,27.30
2023-01-25T08:27:04.741Z,27.90
2023-01-25T08:28:04.709Z,28.70
2023-01-25T08:29:04.691Z,33.20
2023-01-25T08:30:04.741Z,29.30
2023-01-25T08:31:36.713Z,34.50
2023-01-25T08:32:04.776Z,27.90
2023-01-25T08:33:04.657Z,31.40
2023-01-25T08:34:05.684Z,29.10
2023-01-25T08:35:04.712Z,32.10
2023-01-25T08:36:04.655Z,28.40
2023-01-25T08:37:04.659Z,34.00
2023-01-25T08:38:04.651Z,34.60
2023-01-25T08:39:05.181Z,32.00
2023-01-25T08:40:04.628Z,31.90
2023-01-25T08:41:36.596Z,30.90
2023-01-25T08:42:04.617Z,34.80
2023-01-25T08:43:05.616Z,33.90
2023-01-25T08:44:04.572Z,34.70
2023-01-25T08:45:04.609Z,32.20
2023-01-25T08:46:04.618Z,29.00
2023-01-25T08:47:04.586Z,34.10
2023-01-25T08:48:04.584Z,32.50
2023-01-25T08:49:04.789Z,29.60
2023-01-25T08:50:37.505Z,34.50
2023-01-25T08:51:04.540Z,32.30
2023-01-25T08:52:04.579Z,32.10
2023-01-25T08:53:04.552Z,31.90
2023-01-25T08:54:36.413Z,30.00
2023-01-25T08:55:04.513Z,30.70
2023-01-25T08:56:04.591Z,31.90
2023-01-25T08:57:04.520Z,32.10
2023-01-25T08:58:04.493Z,31.60
2023-01-25T08:59:04.521Z,25.50
2023-01-25T09:00:04.520Z,26.00
2023-01-25T09:01:04.533Z,28.40
2023-01-25T09:02:04.454Z,26.60
2023-01-25T09:03:04.464Z,30.20
2023-01-25T09:04:04.526Z,22.70
2023-01-25T09:05:04.439Z,21.50
2023-01-25T09:06:04.495Z,22.10
2023-01-25T09:07:04.467Z,23.80
2023-01-25T09:08:06.366Z,23.60
2023-01-25T09:09:04.409Z,22.10
2023-01-25T09:10:04.393Z,23.00
2023-01-25T09:11:04.364Z,25.40
2023-01-25T09:12:04.436Z,23.90
2023-01-25T09:13:06.341Z,22.20
2023-01-25T09:14:04.439Z,24.80
2023-01-25T09:15:04.369Z,25.20
2023-01-25T09:16:04.364Z,29.10
2023-01-25T09:17:04.442Z,28.10
2023-01-25T09:18:04.371Z,26.10
2023-01-25T09:19:04.374Z,24.60
2023-01-25T09:20:04.338Z,26.10
2023-01-25T09:21:04.400Z,27.00
2023-01-25T09:22:04.326Z,24.20
2023-01-25T09:23:04.287Z,26.10
2023-01-25T09:24:06.916Z,26.50
2023-01-25T09:25:05.479Z,26.00
2023-01-25T09:26:04.307Z,24.30
2023-01-25T09:27:04.273Z,24.90
2023-01-25T09:28:04.270Z,26.70
2023-01-25T09:29:04.346Z,24.10
2023-01-25T09:30:04.462Z,27.10
2023-01-25T09:31:20.559Z,27.70
2023-01-25T09:32:06.341Z,26.50
2023-01-25T09:33:04.238Z,27.20
2023-01-25T09:34:04.219Z,27.40
2023-01-25T09:35:04.195Z,24.20
2023-01-25T09:36:04.210Z,27.70
2023-01-25T09:37:36.139Z,25.20
2023-01-25T09:38:04.181Z,26.90
2023-01-25T09:39:36.126Z,24.80
2023-01-25T09:40:04.173Z,26.40
2023-01-25T09:41:36.569Z,29.30
2023-01-25T09:42:14.058Z,25.60
2023-01-25T09:43:05.124Z,26.20
2023-01-25T09:44:14.181Z,28.50
2023-01-25T09:45:06.185Z,31.70
2023-01-25T09:46:04.160Z,28.50
2023-01-25T09:47:04.084Z,28.60
2023-01-25T09:48:04.108Z,25.40
2023-01-25T09:49:07.714Z,27.20
2023-01-25T09:50:05.099Z,27.90
2023-01-25T09:51:05.046Z,26.80
2023-01-25T09:52:04.182Z,28.60
2023-01-25T09:53:04.067Z,28.40
2023-01-25T09:54:04.078Z,28.10
2023-01-25T09:55:04.104Z,28.10
2023-01-25T09:56:04.053Z,27.60
2023-01-25T09:57:04.040Z,26.60
2023-01-25T09:58:04.166Z,25.60
2023-01-25T09:59:04.013Z,26.50
2023-01-25T10:00:04.258Z,28.50
2023-01-25T10:01:12.073Z,26.50
2023-01-25T10:02:05.020Z,25.30
2023-01-25T10:03:04.031Z,27.80
2023-01-25T10:04:03.965Z,24.20
2023-01-25T10:05:03.992Z,23.00
2023-01-25T10:06:03.958Z,25.40
2023-01-25T10:07:04.038Z,23.20
2023-01-25T10:08:03.974Z,24.30
2023-01-25T10:09:04.134Z,27.40
2023-01-25T10:10:03.950Z,24.10
2023-01-25T10:11:03.934Z,27.30
2023-01-25T10:12:03.974Z,26.50
2023-01-25T10:13:03.965Z,28.90
2023-01-25T10:14:03.901Z,27.50
2023-01-25T10:15:03.913Z,27.60
2023-01-25T10:16:05.219Z,31.90
2023-01-25T10:17:03.898Z,28.70
2023-01-25T10:18:03.879Z,26.00
2023-01-25T10:19:03.851Z,27.30
2023-01-25T10:20:03.862Z,25.90
2023-01-25T10:21:03.846Z,27.10
2023-01-25T10:22:03.857Z,26.90
2023-01-25T10:23:03.912Z,26.20
2023-01-25T10:24:03.866Z,25.10
2023-01-25T10:25:04.605Z,26.80
2023-01-25T10:26:03.801Z,26.80
2023-01-25T10:27:04.603Z,25.70
2023-01-25T10:28:03.864Z,26.10
2023-01-25T10:29:03.976Z,27.90
2023-01-25T10:30:03.779Z,29.70
2023-01-25T10:31:03.954Z,27.70
2023-01-25T10:32:03.752Z,31.30
2023-01-25T10:33:03.805Z,27.10
2023-01-25T10:34:03.791Z,33.90
2023-01-25T10:35:03.778Z,26.20
2023-01-25T10:36:03.739Z,27.90
2023-01-25T10:37:03.764Z,28.60
2023-01-25T10:38:03.714Z,28.90
2023-01-25T10:39:03.737Z,30.00
2023-01-25T10:40:03.696Z,27.80
2023-01-25T10:41:03.878Z,29.40
2023-01-25T10:42:03.718Z,26.20
2023-01-25T10:43:03.672Z,27.00
2023-01-25T10:44:03.727Z,26.60
2023-01-25T10:45:03.702Z,25.00
2023-01-25T10:46:03.648Z,29.90
2023-01-25T10:47:03.627Z,25.70
2023-01-25T10:48:03.633Z,25.10
2023-01-25T10:49:03.650Z,27.00
2023-01-25T10:50:03.696Z,27.30
2023-01-25T10:51:03.616Z,24.70
2023-01-25T10:52:03.604Z,23.90
2023-01-25T10:53:03.625Z,24.10
2023-01-25T10:54:04.587Z,23.70
2023-01-25T10:55:03.701Z,23.80
2023-01-25T10:56:03.606Z,27.40
2023-01-25T10:57:03.546Z,25.40
2023-01-25T10:58:03.546Z,26.80
2023-01-25T10:59:03.544Z,23.50
2023-01-25T11:00:03.552Z,25.10
2023-01-25T11:01:03.601Z,26.40
2023-01-25T11:02:03.578Z,26.10
2023-01-25T11:03:03.557Z,28.30
2023-01-25T11:04:03.501Z,28.90
2023-01-25T11:05:03.499Z,28.20
2023-01-25T11:06:03.496Z,27.90
2023-01-25T11:07:03.578Z,25.10
2023-01-25T11:08:03.468Z,29.20
2023-01-25T11:09:03.519Z,35.20
2023-01-25T11:10:03.496Z,33.10
2023-01-25T11:11:03.464Z,34.60
2023-01-25T11:12:03.520Z,34.20
2023-01-25T11:13:04.390Z,29.50
2023-01-25T11:14:03.432Z,34.80
2023-01-25T11:15:03.431Z,32.60
2023-01-25T11:16:03.474Z,31.80
2023-01-25T11:17:03.421Z,34.30
2023-01-25T11:18:03.423Z,35.00
2023-01-25T11:19:03.395Z,26.60
2023-01-25T11:20:03.389Z,26.30
2023-01-25T11:21:03.436Z,29.80
2023-01-25T11:22:03.409Z,29.40
2023-01-25T11:23:03.399Z,29.70
2023-01-25T11:24:04.720Z,28.20
2023-01-25T11:25:03.348Z,27.90
2023-01-25T11:26:03.341Z,27.40
2023-01-25T11:27:04.309Z,27.40
2023-01-25T11:28:03.362Z,32.00
2023-01-25T11:29:03.334Z,30.10
2023-01-25T11:30:03.321Z,31.50
2023-01-25T11:31:03.423Z,30.60
2023-01-25T11:32:03.312Z,33.80
2023-01-25T11:33:03.311Z,29.80
2023-01-25T11:34:03.306Z,31.10
2023-01-25T11:35:03.266Z,32.20
2023-01-25T11:36:04.267Z,38.60
2023-01-25T11:37:03.355Z,32.60
2023-01-25T11:38:03.279Z,33.90
2023-01-25T11:39:03.257Z,31.70
2023-01-25T11:40:03.233Z,33.30
2023-01-25T11:41:03.265Z,36.80
2023-01-25T11:42:03.280Z,30.70
2023-01-25T11:43:03.233Z,28.20
2023-01-25T11:44:03.224Z,29.80
2023-01-25T11:45:03.225Z,31.60
2023-01-25T11:46:03.248Z,29.70
2023-01-25T11:47:03.234Z,32.50
2023-01-25T11:48:03.198Z,31.40
2023-01-25T11:49:03.627Z,33.50
2023-01-25T11:50:03.254Z,31.80
2023-01-25T11:51:03.170Z,31.20
2023-01-25T11:52:04.141Z,31.60
2023-01-25T11:53:03.177Z,31.40
2023-01-25T11:54:03.151Z,33.00
2023-01-25T11:55:03.140Z,29.60
2023-01-25T11:56:03.350Z,28.90
2023-01-25T11:57:03.093Z,30.00
2023-01-25T11:58:03.085Z,27.50
2023-01-25T11:59:03.097Z,32.10
2023-01-25T12:00:03.112Z,29.60
2023-01-25T12:01:03.119Z,30.00
2023-01-25T12:02:03.104Z,32.70
2023-01-25T12:03:03.160Z,32.20
2023-01-25T12:04:03.103Z,30.90
2023-01-25T12:05:09.692Z,33.90
2023-01-25T12:06:04.569Z,30.90
2023-01-25T12:07:03.037Z,30.90
2023-01-25T12:08:03.045Z,32.50
2023-01-25T12:09:03.031Z,31.30
2023-01-25T12:10:03.007Z,29.50
2023-01-25T12:11:02.991Z,34.30
2023-01-25T12:12:03.037Z,31.30
2023-01-25T12:13:03.100Z,30.20
2023-01-25T12:14:02.984Z,31.80
2023-01-25T12:15:02.985Z,32.80
2023-01-25T12:16:03.010Z,29.10
2023-01-25T12:17:02.944Z,29.20
2023-01-25T12:18:02.936Z,32.40
2023-01-25T12:19:02.993Z,31.20
2023-01-25T12:20:02.931Z,29.60
2023-01-25T12:21:02.943Z,32.10
2023-01-25T12:22:02.936Z,31.30
2023-01-25T12:23:03.849Z,29.10
2023-01-25T12:24:03.021Z,28.20
2023-01-25T12:25:02.878Z,30.80
2023-01-25T12:26:04.394Z,31.30
2023-01-25T12:27:02.949Z,31.10
2023-01-25T12:28:02.933Z,28.10
2023-01-25T12:29:02.919Z,26.40
2023-01-25T12:30:02.872Z,28.70
2023-01-25T12:31:02.995Z,27.50
2023-01-25T12:32:02.850Z,31.50
2023-01-25T12:33:14.004Z,30.40
2023-01-25T12:34:04.833Z,32.00
2023-01-25T12:35:03.495Z,31.50
2023-01-25T12:36:02.887Z,30.00
2023-01-25T12:37:02.829Z,27.10
2023-01-25T12:38:02.863Z,31.70
2023-01-25T12:39:02.813Z,29.40
2023-01-25T12:40:02.798Z,30.90
2023-01-25T12:41:02.847Z,28.80
2023-01-25T12:42:02.831Z,28.60
2023-01-25T12:43:02.836Z,30.00
2023-01-25T12:44:03.562Z,30.00
2023-01-25T12:45:02.751Z,29.40
2023-01-25T12:46:03.477Z,28.50
2023-01-25T12:47:03.679Z,29.20
2023-01-25T12:48:02.796Z,29.70
2023-01-25T12:49:02.704Z,30.90
2023-01-25T12:50:02.717Z,29.10
2023-01-25T12:51:02.711Z,34.40
2023-01-25T12:52:02.718Z,32.30
2023-01-25T12:53:02.728Z,33.00
2023-01-25T12:54:02.741Z,32.90
2023-01-25T12:55:02.763Z,29.20
2023-01-25T12:56:02.880Z,31.20
2023-01-25T12:57:02.666Z,30.40
2023-01-25T12:58:02.666Z,26.00
2023-01-25T12:59:02.659Z,27.00
2023-01-25T13:00:02.710Z,28.50
2023-01-25T13:01:02.639Z,25.00
2023-01-25T13:02:02.691Z,27.80
2023-01-25T13:03:02.604Z,27.40
2023-01-25T13:04:02.592Z,28.20
2023-01-25T13:05:02.754Z,28.50
2023-01-25T13:06:02.595Z,28.40
2023-01-25T13:07:02.595Z,28.30